sensor_id;sensor_type;location;lat;lon;timestamp;P1;durP1;ratioP1;P2;durP2;ratioP2
10493;SDS011;5294;49.410;8.698;2022-08-19T00:01:19;15.87;;;14.47;;
10493;SDS011;5294;49.410;8.698;2022-08-19T00:03:46;16.67;;;15.13;;
10493;SDS011;5294;49.410;8.698;2022-08-19T00:06:12;16.93;;;15.43;;
10493;SDS011;5294;49.410;8.698;2022-08-19T00:08:37;16.93;;;15.43;;
10493;SDS011;5294;49.410;8.698;2022-08-19T00:11:03;16.60;;;15.07;;
10493;SDS011;5294;49.410;8.698;2022-08-19T00:13:30;16.17;;;14.77;;
10493;SDS011;5294;49.410;8.698;2022-08-19T00:15:56;17.00;;;15.47;;
10493;SDS011;5294;49.410;8.698;2022-08-19T00:18:23;16.47;;;15.07;;
10493;SDS011;5294;49.410;8.698;2022-08-19T00:20:49;15.63;;;14.23;;
10493;SDS011;5294;49.410;8.698;2022-08-19T00:23:15;16.50;;;15.00;;
10493;SDS011;5294;49.410;8.698;2022-08-19T00:25:41;17.07;;;15.57;;
10493;SDS011;5294;49.410;8.698;2022-08-19T00:28:10;17.20;;;15.70;;
10493;SDS011;5294;49.410;8.698;2022-08-19T00:30:36;16.60;;;15.10;;
10493;SDS011;5294;49.410;8.698;2022-08-19T00:33:04;17.73;;;16.07;;
10493;SDS011;5294;49.410;8.698;2022-08-19T00:35:30;17.03;;;15.57;;
10493;SDS011;5294;49.410;8.698;2022-08-19T00:37:59;17.50;;;16.00;;
10493;SDS011;5294;49.410;8.698;2022-08-19T00:40:25;17.10;;;15.57;;
10493;SDS011;5294;49.410;8.698;2022-08-19T00:42:54;16.77;;;15.37;;
10493;SDS011;5294;49.410;8.698;2022-08-19T00:45:23;17.10;;;15.70;;
10493;SDS011;5294;49.410;8.698;2022-08-19T00:47:50;17.57;;;15.97;;
10493;SDS011;5294;49.410;8.698;2022-08-19T00:50:17;16.33;;;14.93;;
10493;SDS011;5294;49.410;8.698;2022-08-19T00:52:45;16.07;;;14.67;;
10493;SDS011;5294;49.410;8.698;2022-08-19T00:55:19;17.67;;;16.00;;
10493;SDS011;5294;49.410;8.698;2022-08-19T00:57:48;17.97;;;16.47;;
10493;SDS011;5294;49.410;8.698;2022-08-19T01:00:16;17.50;;;15.97;;
10493;SDS011;5294;49.410;8.698;2022-08-19T01:02:43;19.47;;;17.47;;
10493;SDS011;5294;49.410;8.698;2022-08-19T01:05:11;17.53;;;15.93;;
10493;SDS011;5294;49.410;8.698;2022-08-19T01:07:37;18.40;;;16.80;;
10493;SDS011;5294;49.410;8.698;2022-08-19T01:10:11;17.73;;;16.20;;
10493;SDS011;5294;49.410;8.698;2022-08-19T01:12:39;18.10;;;16.43;;
10493;SDS011;5294;49.410;8.698;2022-08-19T01:15:06;18.93;;;17.20;;
10493;SDS011;5294;49.410;8.698;2022-08-19T01:17:34;18.33;;;16.73;;
10493;SDS011;5294;49.410;8.698;2022-08-19T01:20:02;17.93;;;16.33;;
10493;SDS011;5294;49.410;8.698;2022-08-19T01:22:36;17.97;;;16.37;;
10493;SDS011;5294;49.410;8.698;2022-08-19T01:25:05;18.47;;;16.87;;
10493;SDS011;5294;49.410;8.698;2022-08-19T01:27:42;18.20;;;16.57;;
10493;SDS011;5294;49.410;8.698;2022-08-19T01:30:09;18.77;;;17.07;;
10493;SDS011;5294;49.410;8.698;2022-08-19T01:32:35;18.63;;;17.03;;
10493;SDS011;5294;49.410;8.698;2022-08-19T01:35:02;19.60;;;17.87;;
10493;SDS011;5294;49.410;8.698;2022-08-19T01:37:29;19.17;;;17.47;;
10493;SDS011;5294;49.410;8.698;2022-08-19T01:39:55;19.57;;;17.67;;
10493;SDS011;5294;49.410;8.698;2022-08-19T01:42:23;18.30;;;16.60;;
10493;SDS011;5294;49.410;8.698;2022-08-19T01:44:49;17.97;;;16.37;;
10493;SDS011;5294;49.410;8.698;2022-08-19T01:47:15;18.07;;;16.57;;
10493;SDS011;5294;49.410;8.698;2022-08-19T01:49:41;18.70;;;17.00;;
10493;SDS011;5294;49.410;8.698;2022-08-19T01:52:10;18.57;;;16.73;;
10493;SDS011;5294;49.410;8.698;2022-08-19T01:54:36;18.83;;;17.23;;
10493;SDS011;5294;49.410;8.698;2022-08-19T01:57:06;18.70;;;17.07;;
10493;SDS011;5294;49.410;8.698;2022-08-19T01:59:34;18.67;;;16.97;;
10493;SDS011;5294;49.410;8.698;2022-08-19T02:02:01;19.43;;;17.63;;
10493;SDS011;5294;49.410;8.698;2022-08-19T02:04:29;19.60;;;17.67;;
10493;SDS011;5294;49.410;8.698;2022-08-19T02:06:58;17.57;;;16.03;;
10493;SDS011;5294;49.410;8.698;2022-08-19T02:09:24;18.83;;;17.03;;
10493;SDS011;5294;49.410;8.698;2022-08-19T02:11:53;19.13;;;17.43;;
10493;SDS011;5294;49.410;8.698;2022-08-19T02:14:19;19.20;;;17.40;;
10493;SDS011;5294;49.410;8.698;2022-08-19T02:16:47;18.80;;;17.10;;
10493;SDS011;5294;49.410;8.698;2022-08-19T02:19:13;18.27;;;16.67;;
10493;SDS011;5294;49.410;8.698;2022-08-19T02:21:39;17.70;;;15.93;;
10493;SDS011;5294;49.410;8.698;2022-08-19T02:24:08;20.13;;;18.37;;
10493;SDS011;5294;49.410;8.698;2022-08-19T02:26:34;18.97;;;17.27;;
10493;SDS011;5294;49.410;8.698;2022-08-19T02:29:03;18.37;;;16.77;;
10493;SDS011;5294;49.410;8.698;2022-08-19T02:31:29;18.77;;;16.97;;
10493;SDS011;5294;49.410;8.698;2022-08-19T02:33:55;16.83;;;15.37;;
10493;SDS011;5294;49.410;8.698;2022-08-19T02:36:22;17.90;;;16.30;;
10493;SDS011;5294;49.410;8.698;2022-08-19T02:38:48;20.23;;;18.23;;
10493;SDS011;5294;49.410;8.698;2022-08-19T02:41:18;20.87;;;18.97;;
10493;SDS011;5294;49.410;8.698;2022-08-19T02:43:45;19.87;;;17.97;;
10493;SDS011;5294;49.410;8.698;2022-08-19T02:48:46;20.07;;;18.23;;
10493;SDS011;5294;49.410;8.698;2022-08-19T02:51:18;19.17;;;17.33;;
10493;SDS011;5294;49.410;8.698;2022-08-19T02:53:44;19.23;;;17.30;;
10493;SDS011;5294;49.410;8.698;2022-08-19T02:56:12;19.87;;;17.97;;
10493;SDS011;5294;49.410;8.698;2022-08-19T02:58:39;21.17;;;19.17;;
10493;SDS011;5294;49.410;8.698;2022-08-19T03:01:05;19.93;;;18.03;;
10493;SDS011;5294;49.410;8.698;2022-08-19T03:03:31;20.13;;;18.23;;
10493;SDS011;5294;49.410;8.698;2022-08-19T03:06:07;20.10;;;18.20;;
10493;SDS011;5294;49.410;8.698;2022-08-19T03:08:34;20.87;;;18.80;;
10493;SDS011;5294;49.410;8.698;2022-08-19T03:10:59;19.17;;;17.43;;
10493;SDS011;5294;49.410;8.698;2022-08-19T03:13:25;19.80;;;17.90;;
10493;SDS011;5294;49.410;8.698;2022-08-19T03:15:54;20.23;;;18.40;;
10493;SDS011;5294;49.410;8.698;2022-08-19T03:18:22;20.67;;;18.67;;
10493;SDS011;5294;49.410;8.698;2022-08-19T03:20:49;19.70;;;17.80;;
10493;SDS011;5294;49.410;8.698;2022-08-19T03:23:17;20.50;;;18.63;;
10493;SDS011;5294;49.410;8.698;2022-08-19T03:25:44;20.20;;;18.30;;
10493;SDS011;5294;49.410;8.698;2022-08-19T03:28:11;20.57;;;18.57;;
10493;SDS011;5294;49.410;8.698;2022-08-19T03:30:38;20.17;;;18.27;;
10493;SDS011;5294;49.410;8.698;2022-08-19T03:33:05;19.37;;;17.53;;
10493;SDS011;5294;49.410;8.698;2022-08-19T03:35:31;20.57;;;18.53;;
10493;SDS011;5294;49.410;8.698;2022-08-19T03:37:58;18.70;;;17.00;;
10493;SDS011;5294;49.410;8.698;2022-08-19T03:40:25;19.50;;;17.67;;
10493;SDS011;5294;49.410;8.698;2022-08-19T03:42:51;20.30;;;18.40;;
10493;SDS011;5294;49.410;8.698;2022-08-19T03:45:19;21.07;;;19.00;;
10493;SDS011;5294;49.410;8.698;2022-08-19T03:47:45;20.33;;;18.37;;
10493;SDS011;5294;49.410;8.698;2022-08-19T03:50:11;20.10;;;18.20;;
10493;SDS011;5294;49.410;8.698;2022-08-19T03:52:39;21.97;;;19.90;;
10493;SDS011;5294;49.410;8.698;2022-08-19T03:55:06;20.50;;;18.60;;
10493;SDS011;5294;49.410;8.698;2022-08-19T03:57:33;22.03;;;19.87;;
10493;SDS011;5294;49.410;8.698;2022-08-19T03:59:59;22.17;;;19.87;;
10493;SDS011;5294;49.410;8.698;2022-08-19T04:02:26;22.57;;;20.40;;
10493;SDS011;5294;49.410;8.698;2022-08-19T04:04:54;20.40;;;18.50;;
10493;SDS011;5294;49.410;8.698;2022-08-19T04:07:22;20.70;;;18.70;;
10493;SDS011;5294;49.410;8.698;2022-08-19T04:09:48;21.13;;;19.23;;
10493;SDS011;5294;49.410;8.698;2022-08-19T04:12:16;20.97;;;19.07;;
10493;SDS011;5294;49.410;8.698;2022-08-19T04:14:44;21.37;;;19.47;;
10493;SDS011;5294;49.410;8.698;2022-08-19T04:17:10;22.23;;;20.10;;
10493;SDS011;5294;49.410;8.698;2022-08-19T04:19:37;21.43;;;19.53;;
10493;SDS011;5294;49.410;8.698;2022-08-19T04:22:04;22.80;;;20.60;;
10493;SDS011;5294;49.410;8.698;2022-08-19T04:24:30;20.77;;;18.87;;
10493;SDS011;5294;49.410;8.698;2022-08-19T04:26:56;21.40;;;19.40;;
10493;SDS011;5294;49.410;8.698;2022-08-19T04:29:24;22.87;;;20.80;;
10493;SDS011;5294;49.410;8.698;2022-08-19T04:31:52;22.43;;;20.33;;
10493;SDS011;5294;49.410;8.698;2022-08-19T04:34:20;23.03;;;20.80;;
10493;SDS011;5294;49.410;8.698;2022-08-19T04:36:47;22.50;;;20.50;;
10493;SDS011;5294;49.410;8.698;2022-08-19T04:39:16;23.33;;;21.13;;
10493;SDS011;5294;49.410;8.698;2022-08-19T04:41:45;22.97;;;20.77;;
10493;SDS011;5294;49.410;8.698;2022-08-19T04:44:31;21.77;;;19.77;;
10493;SDS011;5294;49.410;8.698;2022-08-19T04:46:59;24.10;;;21.83;;
10493;SDS011;5294;49.410;8.698;2022-08-19T04:49:28;24.90;;;22.40;;
10493;SDS011;5294;49.410;8.698;2022-08-19T04:51:56;23.87;;;21.67;;
10493;SDS011;5294;49.410;8.698;2022-08-19T04:54:23;24.13;;;21.83;;
10493;SDS011;5294;49.410;8.698;2022-08-19T04:56:50;22.67;;;20.53;;
10493;SDS011;5294;49.410;8.698;2022-08-19T04:59:17;24.20;;;21.97;;
10493;SDS011;5294;49.410;8.698;2022-08-19T05:01:45;24.53;;;22.23;;
10493;SDS011;5294;49.410;8.698;2022-08-19T05:04:15;22.93;;;20.83;;
10493;SDS011;5294;49.410;8.698;2022-08-19T05:06:43;24.00;;;21.80;;
10493;SDS011;5294;49.410;8.698;2022-08-19T05:09:12;21.50;;;19.50;;
10493;SDS011;5294;49.410;8.698;2022-08-19T05:11:39;24.47;;;22.27;;
10493;SDS011;5294;49.410;8.698;2022-08-19T05:14:05;23.83;;;21.63;;
10493;SDS011;5294;49.410;8.698;2022-08-19T05:16:34;22.23;;;20.13;;
10493;SDS011;5294;49.410;8.698;2022-08-19T05:19:02;22.87;;;20.67;;
10493;SDS011;5294;49.410;8.698;2022-08-19T05:21:47;23.03;;;20.73;;
10493;SDS011;5294;49.410;8.698;2022-08-19T05:24:32;23.97;;;21.50;;
10493;SDS011;5294;49.410;8.698;2022-08-19T05:27:01;25.33;;;21.70;;
10493;SDS011;5294;49.410;8.698;2022-08-19T05:29:27;24.43;;;21.90;;
10493;SDS011;5294;49.410;8.698;2022-08-19T05:31:54;24.80;;;22.13;;
10493;SDS011;5294;49.410;8.698;2022-08-19T05:34:23;22.30;;;20.10;;
10493;SDS011;5294;49.410;8.698;2022-08-19T05:36:54;22.80;;;20.40;;
10493;SDS011;5294;49.410;8.698;2022-08-19T05:39:22;22.43;;;20.03;;
10493;SDS011;5294;49.410;8.698;2022-08-19T05:41:49;36.77;;;22.63;;
10493;SDS011;5294;49.410;8.698;2022-08-19T05:44:17;23.33;;;21.33;;
10493;SDS011;5294;49.410;8.698;2022-08-19T05:46:44;22.20;;;20.20;;
10493;SDS011;5294;49.410;8.698;2022-08-19T05:49:14;29.70;;;22.03;;
10493;SDS011;5294;49.410;8.698;2022-08-19T05:51:40;28.37;;;22.97;;
10493;SDS011;5294;49.410;8.698;2022-08-19T05:54:06;35.70;;;24.40;;
10493;SDS011;5294;49.410;8.698;2022-08-19T05:56:33;25.87;;;23.43;;
10493;SDS011;5294;49.410;8.698;2022-08-19T05:59:03;25.63;;;23.03;;
10493;SDS011;5294;49.410;8.698;2022-08-19T06:01:36;29.13;;;22.67;;
10493;SDS011;5294;49.410;8.698;2022-08-19T06:04:02;62.40;;;27.30;;
10493;SDS011;5294;49.410;8.698;2022-08-19T06:06:31;37.70;;;24.20;;
10493;SDS011;5294;49.410;8.698;2022-08-19T06:08:59;37.23;;;24.70;;
10493;SDS011;5294;49.410;8.698;2022-08-19T06:11:37;27.90;;;23.07;;
10493;SDS011;5294;49.410;8.698;2022-08-19T06:14:08;33.43;;;22.43;;
10493;SDS011;5294;49.410;8.698;2022-08-19T06:16:36;36.77;;;23.67;;
10493;SDS011;5294;49.410;8.698;2022-08-19T06:19:03;32.70;;;23.47;;
10493;SDS011;5294;49.410;8.698;2022-08-19T06:21:31;25.90;;;23.30;;
10493;SDS011;5294;49.410;8.698;2022-08-19T06:24:02;23.47;;;21.27;;
10493;SDS011;5294;49.410;8.698;2022-08-19T06:26:31;34.23;;;23.77;;
10493;SDS011;5294;49.410;8.698;2022-08-19T06:29:03;39.80;;;25.10;;
10493;SDS011;5294;49.410;8.698;2022-08-19T06:31:31;65.83;;;25.53;;
10493;SDS011;5294;49.410;8.698;2022-08-19T06:34:01;32.97;;;23.37;;
10493;SDS011;5294;49.410;8.698;2022-08-19T06:36:47;43.83;;;25.60;;
10493;SDS011;5294;49.410;8.698;2022-08-19T06:39:15;44.17;;;25.43;;
10493;SDS011;5294;49.410;8.698;2022-08-19T06:41:46;66.53;;;28.77;;
10493;SDS011;5294;49.410;8.698;2022-08-19T06:44:13;25.97;;;23.17;;
10493;SDS011;5294;49.410;8.698;2022-08-19T06:46:42;26.47;;;23.03;;
10493;SDS011;5294;49.410;8.698;2022-08-19T06:49:08;30.73;;;22.53;;
10493;SDS011;5294;49.410;8.698;2022-08-19T06:51:38;24.33;;;21.93;;
10493;SDS011;5294;49.410;8.698;2022-08-19T06:54:07;24.87;;;22.30;;
10493;SDS011;5294;49.410;8.698;2022-08-19T06:56:35;24.60;;;22.03;;
10493;SDS011;5294;49.410;8.698;2022-08-19T06:59:06;24.20;;;21.80;;
10493;SDS011;5294;49.410;8.698;2022-08-19T07:01:41;60.87;;;27.10;;
10493;SDS011;5294;49.410;8.698;2022-08-19T07:04:07;29.17;;;22.10;;
10493;SDS011;5294;49.410;8.698;2022-08-19T07:06:34;31.80;;;22.43;;
10493;SDS011;5294;49.410;8.698;2022-08-19T07:09:00;25.60;;;21.57;;
10493;SDS011;5294;49.410;8.698;2022-08-19T07:11:29;23.47;;;20.83;;
10493;SDS011;5294;49.410;8.698;2022-08-19T07:13:55;23.83;;;20.70;;
10493;SDS011;5294;49.410;8.698;2022-08-19T07:16:21;22.23;;;19.80;;
10493;SDS011;5294;49.410;8.698;2022-08-19T07:18:48;21.40;;;19.37;;
10493;SDS011;5294;49.410;8.698;2022-08-19T07:21:18;22.03;;;19.83;;
10493;SDS011;5294;49.410;8.698;2022-08-19T07:23:44;22.07;;;19.87;;
10493;SDS011;5294;49.410;8.698;2022-08-19T07:26:25;21.40;;;19.20;;
10493;SDS011;5294;49.410;8.698;2022-08-19T07:28:56;23.70;;;19.33;;
10493;SDS011;5294;49.410;8.698;2022-08-19T07:31:27;24.83;;;19.90;;
10493;SDS011;5294;49.410;8.698;2022-08-19T07:33:54;31.77;;;21.27;;
10493;SDS011;5294;49.410;8.698;2022-08-19T07:36:23;20.13;;;18.30;;
10493;SDS011;5294;49.410;8.698;2022-08-19T07:38:49;22.10;;;19.53;;
10493;SDS011;5294;49.410;8.698;2022-08-19T07:41:19;20.63;;;18.73;;
10493;SDS011;5294;49.410;8.698;2022-08-19T07:43:45;20.13;;;18.03;;
10493;SDS011;5294;49.410;8.698;2022-08-19T07:46:12;22.13;;;18.20;;
10493;SDS011;5294;49.410;8.698;2022-08-19T07:48:39;20.60;;;18.67;;
10493;SDS011;5294;49.410;8.698;2022-08-19T07:51:06;22.00;;;18.53;;
10493;SDS011;5294;49.410;8.698;2022-08-19T07:53:33;19.43;;;17.73;;
10493;SDS011;5294;49.410;8.698;2022-08-19T07:55:59;19.10;;;17.20;;
10493;SDS011;5294;49.410;8.698;2022-08-19T07:58:29;18.47;;;16.80;;
10493;SDS011;5294;49.410;8.698;2022-08-19T08:00:55;18.17;;;16.57;;
10493;SDS011;5294;49.410;8.698;2022-08-19T08:03:26;27.10;;;18.77;;
10493;SDS011;5294;49.410;8.698;2022-08-19T08:06:12;32.27;;;19.23;;
10493;SDS011;5294;49.410;8.698;2022-08-19T08:08:56;43.67;;;19.50;;
10493;SDS011;5294;49.410;8.698;2022-08-19T08:11:45;18.17;;;16.17;;
10493;SDS011;5294;49.410;8.698;2022-08-19T08:14:14;19.77;;;17.83;;
10493;SDS011;5294;49.410;8.698;2022-08-19T08:16:41;21.00;;;16.03;;
10493;SDS011;5294;49.410;8.698;2022-08-19T08:19:09;16.73;;;15.03;;
10493;SDS011;5294;49.410;8.698;2022-08-19T08:21:39;15.90;;;14.60;;
10493;SDS011;5294;49.410;8.698;2022-08-19T08:24:05;15.02;;;13.70;;
10493;SDS011;5294;49.410;8.698;2022-08-19T08:26:34;15.30;;;13.93;;
10493;SDS011;5294;49.410;8.698;2022-08-19T08:29:00;25.52;;;15.98;;
10493;SDS011;5294;49.410;8.698;2022-08-19T08:31:29;13.63;;;12.20;;
10493;SDS011;5294;49.410;8.698;2022-08-19T08:33:57;12.82;;;11.73;;
10493;SDS011;5294;49.410;8.698;2022-08-19T08:36:23;13.15;;;12.05;;
10493;SDS011;5294;49.410;8.698;2022-08-19T08:38:50;12.90;;;11.68;;
10493;SDS011;5294;49.410;8.698;2022-08-19T08:44:02;28.52;;;14.77;;
10493;SDS011;5294;49.410;8.698;2022-08-19T08:46:43;15.65;;;13.05;;
10493;SDS011;5294;49.410;8.698;2022-08-19T08:52:28;13.02;;;11.82;;
10493;SDS011;5294;49.410;8.698;2022-08-19T08:54:54;20.25;;;13.20;;
10493;SDS011;5294;49.410;8.698;2022-08-19T08:57:24;24.98;;;13.90;;
10493;SDS011;5294;49.410;8.698;2022-08-19T08:59:52;11.73;;;9.95;;
10493;SDS011;5294;49.410;8.698;2022-08-19T09:02:22;11.23;;;9.52;;
10493;SDS011;5294;49.410;8.698;2022-08-19T09:04:51;9.93;;;9.02;;
10493;SDS011;5294;49.410;8.698;2022-08-19T09:09:48;10.02;;;9.18;;
10493;SDS011;5294;49.410;8.698;2022-08-19T09:15:06;10.13;;;9.27;;
10493;SDS011;5294;49.410;8.698;2022-08-19T09:17:35;10.77;;;9.70;;
10493;SDS011;5294;49.410;8.698;2022-08-19T09:22:34;17.63;;;9.95;;
10493;SDS011;5294;49.410;8.698;2022-08-19T09:25:03;9.93;;;8.27;;
10493;SDS011;5294;49.410;8.698;2022-08-19T09:27:31;8.85;;;8.15;;
10493;SDS011;5294;49.410;8.698;2022-08-19T09:29:57;8.00;;;7.20;;
10493;SDS011;5294;49.410;8.698;2022-08-19T09:32:26;11.68;;;8.68;;
10493;SDS011;5294;49.410;8.698;2022-08-19T09:34:52;9.30;;;8.40;;
10493;SDS011;5294;49.410;8.698;2022-08-19T09:37:20;8.73;;;7.20;;
10493;SDS011;5294;49.410;8.698;2022-08-19T09:39:47;12.07;;;7.35;;
10493;SDS011;5294;49.410;8.698;2022-08-19T09:42:15;14.00;;;7.18;;
10493;SDS011;5294;49.410;8.698;2022-08-19T09:44:42;6.57;;;5.65;;
10493;SDS011;5294;49.410;8.698;2022-08-19T09:47:09;6.70;;;6.15;;
10493;SDS011;5294;49.410;8.698;2022-08-19T09:49:36;8.02;;;7.28;;
10493;SDS011;5294;49.410;8.698;2022-08-19T09:52:05;7.72;;;7.03;;
10493;SDS011;5294;49.410;8.698;2022-08-19T09:54:32;7.68;;;7.07;;
10493;SDS011;5294;49.410;8.698;2022-08-19T09:56:58;8.25;;;7.55;;
10493;SDS011;5294;49.410;8.698;2022-08-19T09:59:28;8.90;;;6.95;;
10493;SDS011;5294;49.410;8.698;2022-08-19T10:01:54;6.93;;;6.43;;
10493;SDS011;5294;49.410;8.698;2022-08-19T10:04:21;6.78;;;6.28;;
10493;SDS011;5294;49.410;8.698;2022-08-19T10:07:07;10.15;;;9.20;;
10493;SDS011;5294;49.410;8.698;2022-08-19T10:09:35;6.13;;;5.63;;
10493;SDS011;5294;49.410;8.698;2022-08-19T10:12:02;43.35;;;14.30;;
10493;SDS011;5294;49.410;8.698;2022-08-19T10:14:30;8.18;;;5.50;;
10493;SDS011;5294;49.410;8.698;2022-08-19T10:16:59;6.53;;;6.03;;
10493;SDS011;5294;49.410;8.698;2022-08-19T10:19:28;6.60;;;6.03;;
10493;SDS011;5294;49.410;8.698;2022-08-19T10:22:02;7.22;;;6.53;;
10493;SDS011;5294;49.410;8.698;2022-08-19T10:24:31;7.32;;;6.72;;
10493;SDS011;5294;49.410;8.698;2022-08-19T10:26:58;21.38;;;9.95;;
10493;SDS011;5294;49.410;8.698;2022-08-19T10:29:25;17.58;;;7.93;;
10493;SDS011;5294;49.410;8.698;2022-08-19T10:31:53;7.88;;;6.63;;
10493;SDS011;5294;49.410;8.698;2022-08-19T10:34:19;41.83;;;14.48;;
10493;SDS011;5294;49.410;8.698;2022-08-19T10:36:47;6.10;;;5.50;;
10493;SDS011;5294;49.410;8.698;2022-08-19T10:39:14;6.18;;;5.47;;
10493;SDS011;5294;49.410;8.698;2022-08-19T10:41:40;12.55;;;6.93;;
10493;SDS011;5294;49.410;8.698;2022-08-19T10:44:09;34.28;;;10.95;;
10493;SDS011;5294;49.410;8.698;2022-08-19T10:46:37;15.45;;;7.43;;
10493;SDS011;5294;49.410;8.698;2022-08-19T10:49:04;8.40;;;5.95;;
10493;SDS011;5294;49.410;8.698;2022-08-19T10:51:32;18.88;;;7.20;;
10493;SDS011;5294;49.410;8.698;2022-08-19T10:54:17;12.18;;;6.15;;
10493;SDS011;5294;49.410;8.698;2022-08-19T10:56:46;233.55;;;39.80;;
10493;SDS011;5294;49.410;8.698;2022-08-19T10:59:19;8.13;;;5.72;;
10493;SDS011;5294;49.410;8.698;2022-08-19T11:01:47;13.13;;;6.40;;
10493;SDS011;5294;49.410;8.698;2022-08-19T11:04:14;10.00;;;6.05;;
10493;SDS011;5294;49.410;8.698;2022-08-19T11:06:43;30.00;;;8.90;;
10493;SDS011;5294;49.410;8.698;2022-08-19T11:09:13;57.78;;;14.82;;
10493;SDS011;5294;49.410;8.698;2022-08-19T11:11:39;45.47;;;11.07;;
10493;SDS011;5294;49.410;8.698;2022-08-19T11:14:09;10.27;;;5.72;;
10493;SDS011;5294;49.410;8.698;2022-08-19T11:16:35;17.27;;;6.75;;
10493;SDS011;5294;49.410;8.698;2022-08-19T11:19:04;81.93;;;15.05;;
10493;SDS011;5294;49.410;8.698;2022-08-19T11:21:33;38.60;;;10.95;;
10493;SDS011;5294;49.410;8.698;2022-08-19T11:24:06;6.20;;;5.55;;
10493;SDS011;5294;49.410;8.698;2022-08-19T11:26:32;6.93;;;6.32;;
10493;SDS011;5294;49.410;8.698;2022-08-19T11:28:59;28.35;;;9.25;;
10493;SDS011;5294;49.410;8.698;2022-08-19T11:31:26;6.97;;;6.30;;
10493;SDS011;5294;49.410;8.698;2022-08-19T11:33:55;8.05;;;7.30;;
10493;SDS011;5294;49.410;8.698;2022-08-19T11:36:22;7.55;;;6.90;;
10493;SDS011;5294;49.410;8.698;2022-08-19T11:38:52;17.90;;;8.07;;
10493;SDS011;5294;49.410;8.698;2022-08-19T11:41:18;66.03;;;14.43;;
10493;SDS011;5294;49.410;8.698;2022-08-19T11:43:48;8.43;;;7.05;;
10493;SDS011;5294;49.410;8.698;2022-08-19T11:46:14;16.50;;;7.40;;
10493;SDS011;5294;49.410;8.698;2022-08-19T11:48:40;10.90;;;7.68;;
10493;SDS011;5294;49.410;8.698;2022-08-19T11:51:10;10.70;;;7.68;;
10493;SDS011;5294;49.410;8.698;2022-08-19T11:53:37;7.20;;;6.65;;
10493;SDS011;5294;49.410;8.698;2022-08-19T11:56:03;6.60;;;6.10;;
10493;SDS011;5294;49.410;8.698;2022-08-19T11:58:33;6.57;;;5.97;;
10493;SDS011;5294;49.410;8.698;2022-08-19T12:00:59;7.70;;;6.75;;
10493;SDS011;5294;49.410;8.698;2022-08-19T12:03:25;7.30;;;6.80;;
10493;SDS011;5294;49.410;8.698;2022-08-19T12:05:54;19.55;;;9.13;;
10493;SDS011;5294;49.410;8.698;2022-08-19T12:08:20;7.40;;;6.90;;
10493;SDS011;5294;49.410;8.698;2022-08-19T12:10:46;7.97;;;7.38;;
10493;SDS011;5294;49.410;8.698;2022-08-19T12:13:13;7.55;;;6.95;;
10493;SDS011;5294;49.410;8.698;2022-08-19T12:15:44;6.80;;;6.25;;
10493;SDS011;5294;49.410;8.698;2022-08-19T12:18:11;6.63;;;6.13;;
10493;SDS011;5294;49.410;8.698;2022-08-19T12:20:42;10.15;;;7.38;;
10493;SDS011;5294;49.410;8.698;2022-08-19T12:23:11;8.38;;;6.93;;
10493;SDS011;5294;49.410;8.698;2022-08-19T12:25:42;8.05;;;7.25;;
10493;SDS011;5294;49.410;8.698;2022-08-19T12:28:13;31.73;;;10.02;;
10493;SDS011;5294;49.410;8.698;2022-08-19T12:30:44;7.78;;;7.07;;
10493;SDS011;5294;49.410;8.698;2022-08-19T12:33:12;20.20;;;8.13;;
10493;SDS011;5294;49.410;8.698;2022-08-19T12:35:39;18.90;;;7.85;;
10493;SDS011;5294;49.410;8.698;2022-08-19T12:38:07;18.90;;;9.18;;
10493;SDS011;5294;49.410;8.698;2022-08-19T12:40:33;34.97;;;10.85;;
10493;SDS011;5294;49.410;8.698;2022-08-19T12:43:01;41.67;;;11.90;;
10493;SDS011;5294;49.410;8.698;2022-08-19T12:45:27;41.45;;;11.65;;
10493;SDS011;5294;49.410;8.698;2022-08-19T12:47:56;57.28;;;11.48;;
10493;SDS011;5294;49.410;8.698;2022-08-19T12:50:22;7.75;;;7.15;;
10493;SDS011;5294;49.410;8.698;2022-08-19T12:52:48;7.50;;;7.00;;
10493;SDS011;5294;49.410;8.698;2022-08-19T12:55:16;11.45;;;8.10;;
10493;SDS011;5294;49.410;8.698;2022-08-19T12:57:45;7.65;;;7.15;;
10493;SDS011;5294;49.410;8.698;2022-08-19T13:00:13;15.43;;;9.20;;
10493;SDS011;5294;49.410;8.698;2022-08-19T13:02:45;7.90;;;7.40;;
10493;SDS011;5294;49.410;8.698;2022-08-19T13:05:13;25.75;;;9.48;;
10493;SDS011;5294;49.410;8.698;2022-08-19T13:07:40;19.35;;;8.52;;
10493;SDS011;5294;49.410;8.698;2022-08-19T13:10:11;14.73;;;7.80;;
10493;SDS011;5294;49.410;8.698;2022-08-19T13:12:38;7.97;;;7.25;;
10493;SDS011;5294;49.410;8.698;2022-08-19T13:15:05;7.45;;;6.95;;
10493;SDS011;5294;49.410;8.698;2022-08-19T13:17:33;8.75;;;7.10;;
10493;SDS011;5294;49.410;8.698;2022-08-19T13:20:02;8.82;;;7.93;;
10493;SDS011;5294;49.410;8.698;2022-08-19T13:22:30;7.25;;;6.60;;
10493;SDS011;5294;49.410;8.698;2022-08-19T13:24:56;7.43;;;6.82;;
10493;SDS011;5294;49.410;8.698;2022-08-19T13:27:22;7.57;;;6.85;;
10493;SDS011;5294;49.410;8.698;2022-08-19T13:29:48;7.18;;;6.50;;
10493;SDS011;5294;49.410;8.698;2022-08-19T13:32:35;7.18;;;6.50;;
10493;SDS011;5294;49.410;8.698;2022-08-19T13:35:20;7.22;;;6.60;;
10493;SDS011;5294;49.410;8.698;2022-08-19T13:37:46;6.88;;;6.47;;
10493;SDS011;5294;49.410;8.698;2022-08-19T13:40:19;7.00;;;6.50;;
10493;SDS011;5294;49.410;8.698;2022-08-19T13:42:48;6.82;;;6.35;;
10493;SDS011;5294;49.410;8.698;2022-08-19T13:45:16;7.78;;;7.07;;
10493;SDS011;5294;49.410;8.698;2022-08-19T13:47:45;6.88;;;6.38;;
10493;SDS011;5294;49.410;8.698;2022-08-19T13:50:12;5.95;;;5.65;;
10493;SDS011;5294;49.410;8.698;2022-08-19T13:52:39;8.60;;;6.50;;
10493;SDS011;5294;49.410;8.698;2022-08-19T13:55:06;6.53;;;6.03;;
10493;SDS011;5294;49.410;8.698;2022-08-19T13:57:32;6.40;;;6.00;;
10493;SDS011;5294;49.410;8.698;2022-08-19T13:59:58;6.18;;;5.78;;
10493;SDS011;5294;49.410;8.698;2022-08-19T14:02:24;6.60;;;6.10;;
10493;SDS011;5294;49.410;8.698;2022-08-19T14:04:51;6.47;;;5.93;;
10493;SDS011;5294;49.410;8.698;2022-08-19T14:07:17;6.97;;;6.28;;
10493;SDS011;5294;49.410;8.698;2022-08-19T14:09:43;6.57;;;6.03;;
10493;SDS011;5294;49.410;8.698;2022-08-19T14:12:09;5.82;;;5.43;;
10493;SDS011;5294;49.410;8.698;2022-08-19T14:14:36;5.60;;;5.10;;
10493;SDS011;5294;49.410;8.698;2022-08-19T14:17:05;5.53;;;5.18;;
10493;SDS011;5294;49.410;8.698;2022-08-19T14:19:31;5.90;;;5.50;;
10493;SDS011;5294;49.410;8.698;2022-08-19T14:21:57;5.90;;;5.50;;
10493;SDS011;5294;49.410;8.698;2022-08-19T14:24:23;6.05;;;5.65;;
10493;SDS011;5294;49.410;8.698;2022-08-19T14:26:49;6.03;;;5.57;;
10493;SDS011;5294;49.410;8.698;2022-08-19T14:29:18;6.05;;;5.65;;
10493;SDS011;5294;49.410;8.698;2022-08-19T14:31:44;6.38;;;5.88;;
10493;SDS011;5294;49.410;8.698;2022-08-19T14:34:10;5.80;;;5.40;;
10493;SDS011;5294;49.410;8.698;2022-08-19T14:36:37;6.10;;;5.57;;
10493;SDS011;5294;49.410;8.698;2022-08-19T14:39:04;7.85;;;7.22;;
10493;SDS011;5294;49.410;8.698;2022-08-19T14:41:30;6.05;;;5.57;;
10493;SDS011;5294;49.410;8.698;2022-08-19T14:43:56;5.53;;;5.10;;
10493;SDS011;5294;49.410;8.698;2022-08-19T14:46:24;5.70;;;5.30;;
10493;SDS011;5294;49.410;8.698;2022-08-19T14:48:53;6.10;;;5.70;;
10493;SDS011;5294;49.410;8.698;2022-08-19T14:51:23;6.45;;;5.95;;
10493;SDS011;5294;49.410;8.698;2022-08-19T14:53:50;6.60;;;6.05;;
10493;SDS011;5294;49.410;8.698;2022-08-19T14:56:18;6.20;;;5.70;;
10493;SDS011;5294;49.410;8.698;2022-08-19T14:58:47;5.78;;;5.38;;
10493;SDS011;5294;49.410;8.698;2022-08-19T15:01:16;6.25;;;5.85;;
10493;SDS011;5294;49.410;8.698;2022-08-19T15:03:42;5.57;;;5.22;;
10493;SDS011;5294;49.410;8.698;2022-08-19T15:06:09;5.80;;;5.40;;